sensor_id;sensor_type;location;lat;lon;timestamp;temperature;humidity
33761;DHT22;20084;47.912;19.044;2023-12-04T00:00:26;-4.70;99.90
33761;DHT22;20084;47.912;19.044;2023-12-04T00:02:52;-4.60;99.90
33761;DHT22;20084;47.912;19.044;2023-12-04T00:05:17;-4.40;99.90
33761;DHT22;20084;47.912;19.044;2023-12-04T00:07:43;-4.40;99.90
33761;DHT22;20084;47.912;19.044;2023-12-04T00:10:09;-4.40;99.90
33761;DHT22;20084;47.912;19.044;2023-12-04T01:48:15;-4.90;99.90
33761;DHT22;20084;47.912;19.044;2023-12-04T01:50:41;-5.00;99.90
33761;DHT22;20084;47.912;19.044;2023-12-04T01:53:07;-4.90;99.90
33761;DHT22;20084;47.912;19.044;2023-12-04T01:55:33;-5.00;99.90
33761;DHT22;20084;47.912;19.044;2023-12-04T01:58:00;-5.00;99.90
33761;DHT22;20084;47.912;19.044;2023-12-04T02:00:29;-5.00;99.90
33761;DHT22;20084;47.912;19.044;2023-12-04T02:02:55;-5.40;99.90
33761;DHT22;20084;47.912;19.044;2023-12-04T02:05:21;-5.60;99.90
33761;DHT22;20084;47.912;19.044;2023-12-04T02:07:48;-5.50;99.90
33761;DHT22;20084;47.912;19.044;2023-12-04T02:10:14;-5.50;99.90
33761;DHT22;20084;47.912;19.044;2023-12-04T02:12:39;-5.40;99.90
33761;DHT22;20084;47.912;19.044;2023-12-04T02:15:05;-5.40;99.90
33761;DHT22;20084;47.912;19.044;2023-12-04T02:17:32;-5.30;99.90
33761;DHT22;20084;47.912;19.044;2023-12-04T02:19:59;-5.40;99.90
33761;DHT22;20084;47.912;19.044;2023-12-04T02:22:24;-5.40;99.90
33761;DHT22;20084;47.912;19.044;2023-12-04T02:24:50;-5.40;99.90
33761;DHT22;20084;47.912;19.044;2023-12-04T02:27:20;-5.30;99.90
33761;DHT22;20084;47.912;19.044;2023-12-04T02:29:51;-5.30;99.90
33761;DHT22;20084;47.912;19.044;2023-12-04T02:32:19;-5.30;99.90
33761;DHT22;20084;47.912;19.044;2023-12-04T02:34:47;-5.30;99.90
33761;DHT22;20084;47.912;19.044;2023-12-04T02:37:15;-5.10;99.90
33761;DHT22;20084;47.912;19.044;2023-12-04T02:39:42;-5.10;99.90
33761;DHT22;20084;47.912;19.044;2023-12-04T02:42:08;-5.20;99.90
33761;DHT22;20084;47.912;19.044;2023-12-04T02:44:33;-5.20;99.90
33761;DHT22;20084;47.912;19.044;2023-12-04T02:46:59;-5.20;99.90
33761;DHT22;20084;47.912;19.044;2023-12-04T02:49:24;-5.30;99.90
33761;DHT22;20084;47.912;19.044;2023-12-04T02:51:50;-5.60;99.90
33761;DHT22;20084;47.912;19.044;2023-12-04T02:54:15;-5.90;99.90
33761;DHT22;20084;47.912;19.044;2023-12-04T02:56:41;-6.10;99.90
33761;DHT22;20084;47.912;19.044;2023-12-04T02:59:07;-5.90;99.90
33761;DHT22;20084;47.912;19.044;2023-12-04T03:01:32;-6.00;99.90
33761;DHT22;20084;47.912;19.044;2023-12-04T03:03:58;-6.10;99.90
33761;DHT22;20084;47.912;19.044;2023-12-04T03:06:23;-5.90;99.90
33761;DHT22;20084;47.912;19.044;2023-12-04T03:08:49;-5.70;99.90
33761;DHT22;20084;47.912;19.044;2023-12-04T03:11:14;-5.40;99.90
33761;DHT22;20084;47.912;19.044;2023-12-04T03:13:40;-5.40;99.90
33761;DHT22;20084;47.912;19.044;2023-12-04T03:16:06;-5.50;99.90
33761;DHT22;20084;47.912;19.044;2023-12-04T03:18:31;-5.30;99.90
33761;DHT22;20084;47.912;19.044;2023-12-04T03:20:57;-5.20;99.90
33761;DHT22;20084;47.912;19.044;2023-12-04T03:23:23;-5.40;99.90
33761;DHT22;20084;47.912;19.044;2023-12-04T03:25:48;-5.60;99.90
33761;DHT22;20084;47.912;19.044;2023-12-04T03:28:14;-5.60;99.90
33761;DHT22;20084;47.912;19.044;2023-12-04T03:30:41;-5.60;99.90
33761;DHT22;20084;47.912;19.044;2023-12-04T03:33:09;-5.70;99.90
33761;DHT22;20084;47.912;19.044;2023-12-04T03:35:34;-5.70;99.90
33761;DHT22;20084;47.912;19.044;2023-12-04T03:38:00;-5.70;99.90
33761;DHT22;20084;47.912;19.044;2023-12-04T03:40:26;-5.60;99.90
33761;DHT22;20084;47.912;19.044;2023-12-04T03:42:51;-5.30;99.90
33761;DHT22;20084;47.912;19.044;2023-12-04T03:45:17;-5.10;99.90
33761;DHT22;20084;47.912;19.044;2023-12-04T03:47:43;-4.80;99.90
33761;DHT22;20084;47.912;19.044;2023-12-04T03:50:08;-4.60;99.90
33761;DHT22;20084;47.912;19.044;2023-12-04T03:52:34;-4.50;99.90
33761;DHT22;20084;47.912;19.044;2023-12-04T03:55:00;-4.80;99.90
33761;DHT22;20084;47.912;19.044;2023-12-04T03:57:25;-5.10;99.90
33761;DHT22;20084;47.912;19.044;2023-12-04T03:59:51;-5.20;99.90
33761;DHT22;20084;47.912;19.044;2023-12-04T04:02:16;-5.30;99.90
33761;DHT22;20084;47.912;19.044;2023-12-04T04:04:42;-5.20;99.90
33761;DHT22;20084;47.912;19.044;2023-12-04T04:07:09;-5.10;99.90
33761;DHT22;20084;47.912;19.044;2023-12-04T04:09:34;-5.10;99.90
33761;DHT22;20084;47.912;19.044;2023-12-04T04:12:00;-5.30;99.90
33761;DHT22;20084;47.912;19.044;2023-12-04T04:14:25;-5.40;99.90
33761;DHT22;20084;47.912;19.044;2023-12-04T04:16:51;-5.60;99.90
33761;DHT22;20084;47.912;19.044;2023-12-04T04:19:16;-5.50;99.90
33761;DHT22;20084;47.912;19.044;2023-12-04T04:21:42;-5.40;99.90
33761;DHT22;20084;47.912;19.044;2023-12-04T04:24:08;-5.40;99.90
33761;DHT22;20084;47.912;19.044;2023-12-04T04:26:33;-5.50;99.90
33761;DHT22;20084;47.912;19.044;2023-12-04T04:28:59;-5.80;99.90
33761;DHT22;20084;47.912;19.044;2023-12-04T04:31:25;-5.80;99.90
33761;DHT22;20084;47.912;19.044;2023-12-04T04:33:50;-5.70;99.90
33761;DHT22;20084;47.912;19.044;2023-12-04T04:36:16;-5.60;99.90
33761;DHT22;20084;47.912;19.044;2023-12-04T04:38:41;-5.50;99.90
33761;DHT22;20084;47.912;19.044;2023-12-04T04:41:07;-5.50;99.90
33761;DHT22;20084;47.912;19.044;2023-12-04T04:43:38;-5.40;99.90
33761;DHT22;20084;47.912;19.044;2023-12-04T04:46:03;-5.50;99.90
33761;DHT22;20084;47.912;19.044;2023-12-04T04:48:29;-5.40;99.90
33761;DHT22;20084;47.912;19.044;2023-12-04T04:50:55;-5.20;99.90
33761;DHT22;20084;47.912;19.044;2023-12-04T04:53:20;-5.20;99.90
33761;DHT22;20084;47.912;19.044;2023-12-04T04:55:46;-5.40;99.90
33761;DHT22;20084;47.912;19.044;2023-12-04T04:58:12;-5.80;99.90
33761;DHT22;20084;47.912;19.044;2023-12-04T05:00:37;-5.90;99.90
33761;DHT22;20084;47.912;19.044;2023-12-04T05:03:03;-5.80;99.90
33761;DHT22;20084;47.912;19.044;2023-12-04T05:05:28;-5.80;99.90
33761;DHT22;20084;47.912;19.044;2023-12-04T05:07:54;-5.60;99.90
33761;DHT22;20084;47.912;19.044;2023-12-04T05:10:19;-5.50;99.90
33761;DHT22;20084;47.912;19.044;2023-12-04T05:12:45;-5.40;99.90
33761;DHT22;20084;47.912;19.044;2023-12-04T05:15:10;-5.40;99.90
33761;DHT22;20084;47.912;19.044;2023-12-04T05:17:36;-5.40;99.90
33761;DHT22;20084;47.912;19.044;2023-12-04T05:20:02;-5.30;99.90
33761;DHT22;20084;47.912;19.044;2023-12-04T05:22:27;-5.40;99.90
33761;DHT22;20084;47.912;19.044;2023-12-04T05:24:53;-5.70;99.90
33761;DHT22;20084;47.912;19.044;2023-12-04T05:27:19;-5.70;99.90
33761;DHT22;20084;47.912;19.044;2023-12-04T05:29:44;-5.60;99.90
33761;DHT22;20084;47.912;19.044;2023-12-04T05:32:10;-5.50;99.90
33761;DHT22;20084;47.912;19.044;2023-12-04T05:34:36;-5.50;99.90
33761;DHT22;20084;47.912;19.044;2023-12-04T05:37:01;-5.30;99.90
33761;DHT22;20084;47.912;19.044;2023-12-04T05:39:27;-5.20;99.90
33761;DHT22;20084;47.912;19.044;2023-12-04T05:41:52;-5.30;99.90
33761;DHT22;20084;47.912;19.044;2023-12-04T05:44:18;-5.50;99.90
33761;DHT22;20084;47.912;19.044;2023-12-04T05:46:44;-5.60;99.90
33761;DHT22;20084;47.912;19.044;2023-12-04T05:49:09;-5.50;99.90
33761;DHT22;20084;47.912;19.044;2023-12-04T05:51:35;-5.50;99.90
33761;DHT22;20084;47.912;19.044;2023-12-04T05:54:01;-5.50;99.90
33761;DHT22;20084;47.912;19.044;2023-12-04T05:56:26;-5.60;99.90
33761;DHT22;20084;47.912;19.044;2023-12-04T05:58:52;-5.70;99.90
33761;DHT22;20084;47.912;19.044;2023-12-04T06:01:18;-5.80;99.90
33761;DHT22;20084;47.912;19.044;2023-12-04T06:03:44;-5.90;99.90
33761;DHT22;20084;47.912;19.044;2023-12-04T06:06:10;-6.00;99.90
33761;DHT22;20084;47.912;19.044;2023-12-04T06:08:35;-6.20;99.90
33761;DHT22;20084;47.912;19.044;2023-12-04T06:11:01;-6.10;99.90
33761;DHT22;20084;47.912;19.044;2023-12-04T06:13:26;-6.20;99.90
33761;DHT22;20084;47.912;19.044;2023-12-04T06:15:52;-6.30;99.90
33761;DHT22;20084;47.912;19.044;2023-12-04T06:18:18;-6.40;99.90
33761;DHT22;20084;47.912;19.044;2023-12-04T06:20:43;-6.60;99.90
33761;DHT22;20084;47.912;19.044;2023-12-04T06:23:09;-6.80;99.90
33761;DHT22;20084;47.912;19.044;2023-12-04T06:25:35;-6.90;99.90
33761;DHT22;20084;47.912;19.044;2023-12-04T06:28:01;-6.70;99.90
33761;DHT22;20084;47.912;19.044;2023-12-04T06:30:26;-6.50;99.90
33761;DHT22;20084;47.912;19.044;2023-12-04T06:32:52;-6.20;99.90
33761;DHT22;20084;47.912;19.044;2023-12-04T06:35:18;-6.00;99.90
33761;DHT22;20084;47.912;19.044;2023-12-04T06:37:45;-5.70;99.90
33761;DHT22;20084;47.912;19.044;2023-12-04T06:40:11;-5.50;99.90
33761;DHT22;20084;47.912;19.044;2023-12-04T06:42:38;-5.30;99.90
33761;DHT22;20084;47.912;19.044;2023-12-04T06:45:04;-5.10;99.90
33761;DHT22;20084;47.912;19.044;2023-12-04T06:47:33;-4.90;99.90
33761;DHT22;20084;47.912;19.044;2023-12-04T06:49:59;-5.10;99.90
33761;DHT22;20084;47.912;19.044;2023-12-04T06:52:24;-5.60;99.90
33761;DHT22;20084;47.912;19.044;2023-12-04T06:54:50;-5.90;99.90
33761;DHT22;20084;47.912;19.044;2023-12-04T06:57:16;-6.10;99.90
33761;DHT22;20084;47.912;19.044;2023-12-04T06:59:42;-6.00;99.90
33761;DHT22;20084;47.912;19.044;2023-12-04T07:02:08;-5.80;99.90
33761;DHT22;20084;47.912;19.044;2023-12-04T07:04:34;-5.60;99.90
33761;DHT22;20084;47.912;19.044;2023-12-04T07:06:59;-5.40;99.90
33761;DHT22;20084;47.912;19.044;2023-12-04T07:09:31;-5.10;99.90
33761;DHT22;20084;47.912;19.044;2023-12-04T07:11:57;-5.20;99.90
33761;DHT22;20084;47.912;19.044;2023-12-04T07:14:22;-5.30;99.90
33761;DHT22;20084;47.912;19.044;2023-12-04T07:16:48;-5.40;99.90
33761;DHT22;20084;47.912;19.044;2023-12-04T07:19:14;-5.30;99.90
33761;DHT22;20084;47.912;19.044;2023-12-04T07:21:41;-5.10;99.90
33761;DHT22;20084;47.912;19.044;2023-12-04T07:24:07;-4.90;99.90
33761;DHT22;20084;47.912;19.044;2023-12-04T07:26:34;-4.90;99.90
33761;DHT22;20084;47.912;19.044;2023-12-04T07:29:00;-4.60;99.90
33761;DHT22;20084;47.912;19.044;2023-12-04T07:31:25;-4.40;99.90
33761;DHT22;20084;47.912;19.044;2023-12-04T07:33:53;-4.20;99.90
33761;DHT22;20084;47.912;19.044;2023-12-04T07:36:18;-4.00;99.90
33761;DHT22;20084;47.912;19.044;2023-12-04T07:38:45;-3.90;99.90
33761;DHT22;20084;47.912;19.044;2023-12-04T07:41:10;-3.80;99.90
33761;DHT22;20084;47.912;19.044;2023-12-04T07:43:36;-3.50;99.90
33761;DHT22;20084;47.912;19.044;2023-12-04T07:46:02;-3.30;99.90
33761;DHT22;20084;47.912;19.044;2023-12-04T07:48:29;-3.10;99.90
33761;DHT22;20084;47.912;19.044;2023-12-04T07:50:55;-2.90;99.90
33761;DHT22;20084;47.912;19.044;2023-12-04T07:53:21;-2.70;99.90
33761;DHT22;20084;47.912;19.044;2023-12-04T07:55:48;-2.60;99.90
33761;DHT22;20084;47.912;19.044;2023-12-04T07:58:14;-2.50;99.90
33761;DHT22;20084;47.912;19.044;2023-12-04T08:00:40;-2.30;99.90
33761;DHT22;20084;47.912;19.044;2023-12-04T08:03:07;-2.20;99.90
33761;DHT22;20084;47.912;19.044;2023-12-04T08:05:32;-2.20;99.90
33761;DHT22;20084;47.912;19.044;2023-12-04T08:07:58;-2.10;99.90
33761;DHT22;20084;47.912;19.044;2023-12-04T08:10:23;-1.90;99.90
33761;DHT22;20084;47.912;19.044;2023-12-04T08:12:49;-1.80;99.90
33761;DHT22;20084;47.912;19.044;2023-12-04T08:15:14;-1.70;99.90
33761;DHT22;20084;47.912;19.044;2023-12-04T08:17:40;-1.60;99.90
33761;DHT22;20084;47.912;19.044;2023-12-04T08:20:07;-1.50;99.90
33761;DHT22;20084;47.912;19.044;2023-12-04T08:22:33;-1.30;99.90
33761;DHT22;20084;47.912;19.044;2023-12-04T08:24:58;-1.30;99.90
33761;DHT22;20084;47.912;19.044;2023-12-04T08:27:24;-1.30;99.90
33761;DHT22;20084;47.912;19.044;2023-12-04T08:29:50;-1.30;99.90
33761;DHT22;20084;47.912;19.044;2023-12-04T08:32:16;-1.20;99.90
33761;DHT22;20084;47.912;19.044;2023-12-04T08:34:41;-1.30;99.90
33761;DHT22;20084;47.912;19.044;2023-12-04T08:37:07;-1.20;99.90
33761;DHT22;20084;47.912;19.044;2023-12-04T08:39:32;-1.20;99.90
33761;DHT22;20084;47.912;19.044;2023-12-04T08:41:58;-1.20;99.90
33761;DHT22;20084;47.912;19.044;2023-12-04T08:44:24;-1.20;99.90
33761;DHT22;20084;47.912;19.044;2023-12-04T08:46:49;-1.20;99.90
33761;DHT22;20084;47.912;19.044;2023-12-04T08:49:15;-1.00;99.90
33761;DHT22;20084;47.912;19.044;2023-12-04T08:51:41;-1.00;99.90
33761;DHT22;20084;47.912;19.044;2023-12-04T08:54:07;-1.00;99.90
33761;DHT22;20084;47.912;19.044;2023-12-04T08:56:32;-1.00;99.90
33761;DHT22;20084;47.912;19.044;2023-12-04T08:58:58;-1.00;99.90
33761;DHT22;20084;47.912;19.044;2023-12-04T09:01:24;-0.90;99.90
33761;DHT22;20084;47.912;19.044;2023-12-04T09:03:52;-0.80;99.90
33761;DHT22;20084;47.912;19.044;2023-12-04T09:06:17;-0.70;99.90
33761;DHT22;20084;47.912;19.044;2023-12-04T09:08:43;-0.50;99.90
33761;DHT22;20084;47.912;19.044;2023-12-04T09:11:09;-0.20;99.90
33761;DHT22;20084;47.912;19.044;2023-12-04T09:13:34;-0.10;99.90
33761;DHT22;20084;47.912;19.044;2023-12-04T09:16:00;0.10;99.90
33761;DHT22;20084;47.912;19.044;2023-12-04T09:18:26;0.30;99.90
33761;DHT22;20084;47.912;19.044;2023-12-04T09:20:51;0.40;99.90
33761;DHT22;20084;47.912;19.044;2023-12-04T09:23:17;0.50;99.90
33761;DHT22;20084;47.912;19.044;2023-12-04T09:25:42;0.50;99.90
33761;DHT22;20084;47.912;19.044;2023-12-04T09:28:08;0.30;99.90
33761;DHT22;20084;47.912;19.044;2023-12-04T09:30:35;0.10;99.90
33761;DHT22;20084;47.912;19.044;2023-12-04T09:33:01;-0.10;99.90
33761;DHT22;20084;47.912;19.044;2023-12-04T09:35:27;0.00;99.90
33761;DHT22;20084;47.912;19.044;2023-12-04T09:37:52;0.20;99.90
33761;DHT22;20084;47.912;19.044;2023-12-04T09:40:18;0.50;99.90
33761;DHT22;20084;47.912;19.044;2023-12-04T09:42:43;0.70;99.90
33761;DHT22;20084;47.912;19.044;2023-12-04T09:45:09;0.80;99.90
33761;DHT22;20084;47.912;19.044;2023-12-04T09:47:36;0.90;99.90
33761;DHT22;20084;47.912;19.044;2023-12-04T09:50:02;0.90;99.90
33761;DHT22;20084;47.912;19.044;2023-12-04T09:52:28;1.00;99.90
33761;DHT22;20084;47.912;19.044;2023-12-04T09:54:53;1.10;99.90
33761;DHT22;20084;47.912;19.044;2023-12-04T09:57:19;1.20;99.90
33761;DHT22;20084;47.912;19.044;2023-12-04T09:59:47;1.10;99.90
33761;DHT22;20084;47.912;19.044;2023-12-04T10:02:13;1.10;99.90
33761;DHT22;20084;47.912;19.044;2023-12-04T10:04:41;1.10;99.90
33761;DHT22;20084;47.912;19.044;2023-12-04T10:07:07;1.20;99.90
33761;DHT22;20084;47.912;19.044;2023-12-04T10:09:32;1.20;99.90
33761;DHT22;20084;47.912;19.044;2023-12-04T10:11:58;1.20;99.90
33761;DHT22;20084;47.912;19.044;2023-12-04T10:14:23;1.30;99.90
33761;DHT22;20084;47.912;19.044;2023-12-04T10:16:51;1.20;99.90
33761;DHT22;20084;47.912;19.044;2023-12-04T10:19:26;1.10;99.90
33761;DHT22;20084;47.912;19.044;2023-12-04T10:21:54;1.00;99.90
33761;DHT22;20084;47.912;19.044;2023-12-04T10:24:35;1.10;99.90
33761;DHT22;20084;47.912;19.044;2023-12-04T10:27:02;1.20;99.90
33761;DHT22;20084;47.912;19.044;2023-12-04T10:29:45;1.30;99.90
33761;DHT22;20084;47.912;19.044;2023-12-04T10:32:12;1.30;99.90
33761;DHT22;20084;47.912;19.044;2023-12-04T10:34:38;1.30;99.90
33761;DHT22;20084;47.912;19.044;2023-12-04T10:37:08;1.20;99.90
33761;DHT22;20084;47.912;19.044;2023-12-04T10:39:50;1.10;99.90
33761;DHT22;20084;47.912;19.044;2023-12-04T10:42:26;1.20;99.90
33761;DHT22;20084;47.912;19.044;2023-12-04T10:44:55;1.20;99.90
33761;DHT22;20084;47.912;19.044;2023-12-04T10:47:21;1.20;99.90
33761;DHT22;20084;47.912;19.044;2023-12-04T10:49:49;1.20;99.90
33761;DHT22;20084;47.912;19.044;2023-12-04T10:52:16;1.20;99.90
33761;DHT22;20084;47.912;19.044;2023-12-04T10:54:41;1.30;99.90
33761;DHT22;20084;47.912;19.044;2023-12-04T10:57:08;1.40;99.90
33761;DHT22;20084;47.912;19.044;2023-12-04T10:59:36;1.50;99.90
33761;DHT22;20084;47.912;19.044;2023-12-04T11:02:05;1.60;99.90
33761;DHT22;20084;47.912;19.044;2023-12-04T11:04:36;1.70;99.90
33761;DHT22;20084;47.912;19.044;2023-12-04T11:07:02;1.70;99.90
33761;DHT22;20084;47.912;19.044;2023-12-04T11:09:33;1.60;99.90
33761;DHT22;20084;47.912;19.044;2023-12-04T11:12:04;1.60;99.90
33761;DHT22;20084;47.912;19.044;2023-12-04T11:14:44;1.60;99.90
33761;DHT22;20084;47.912;19.044;2023-12-04T11:17:13;1.60;99.90
33761;DHT22;20084;47.912;19.044;2023-12-04T11:19:59;1.60;99.90
33761;DHT22;20084;47.912;19.044;2023-12-04T11:22:27;1.60;99.90
33761;DHT22;20084;47.912;19.044;2023-12-04T11:24:52;1.60;99.90
33761;DHT22;20084;47.912;19.044;2023-12-04T11:27:18;1.50;99.90
33761;DHT22;20084;47.912;19.044;2023-12-04T11:29:45;1.40;99.90
33761;DHT22;20084;47.912;19.044;2023-12-04T11:32:15;1.40;99.90
33761;DHT22;20084;47.912;19.044;2023-12-04T11:34:50;1.40;99.90
33761;DHT22;20084;47.912;19.044;2023-12-04T11:37:19;1.40;99.90
33761;DHT22;20084;47.912;19.044;2023-12-04T11:39:49;1.40;99.90
33761;DHT22;20084;47.912;19.044;2023-12-04T11:42:24;1.50;99.90
33761;DHT22;20084;47.912;19.044;2023-12-04T11:44:57;1.60;99.90
33761;DHT22;20084;47.912;19.044;2023-12-04T11:47:23;1.50;99.90
33761;DHT22;20084;47.912;19.044;2023-12-04T11:49:48;1.60;99.90
33761;DHT22;20084;47.912;19.044;2023-12-04T11:52:15;1.60;99.90
33761;DHT22;20084;47.912;19.044;2023-12-04T11:57:23;1.70;99.90
33761;DHT22;20084;47.912;19.044;2023-12-04T11:59:49;1.80;99.90
33761;DHT22;20084;47.912;19.044;2023-12-04T12:02:15;1.90;99.90
33761;DHT22;20084;47.912;19.044;2023-12-04T12:04:42;1.90;99.90
33761;DHT22;20084;47.912;19.044;2023-12-04T12:07:07;1.90;99.90
33761;DHT22;20084;47.912;19.044;2023-12-04T12:09:33;1.90;99.90
33761;DHT22;20084;47.912;19.044;2023-12-04T12:12:01;1.80;99.90
33761;DHT22;20084;47.912;19.044;2023-12-04T12:14:27;1.80;99.90
33761;DHT22;20084;47.912;19.044;2023-12-04T12:16:54;1.80;99.90
33761;DHT22;20084;47.912;19.044;2023-12-04T12:19:21;1.90;99.90
33761;DHT22;20084;47.912;19.044;2023-12-04T12:21:48;1.90;99.90
33761;DHT22;20084;47.912;19.044;2023-12-04T12:24:15;1.90;99.90
33761;DHT22;20084;47.912;19.044;2023-12-04T12:26:41;1.90;99.90
33761;DHT22;20084;47.912;19.044;2023-12-04T12:29:08;2.00;99.90
33761;DHT22;20084;47.912;19.044;2023-12-04T12:31:34;2.00;99.90
33761;DHT22;20084;47.912;19.044;2023-12-04T12:34:00;2.00;99.90
33761;DHT22;20084;47.912;19.044;2023-12-04T12:36:26;1.90;99.90
33761;DHT22;20084;47.912;19.044;2023-12-04T12:38:51;1.90;99.90
33761;DHT22;20084;47.912;19.044;2023-12-04T12:41:17;2.00;99.90
33761;DHT22;20084;47.912;19.044;2023-12-04T12:43:43;2.10;99.90
33761;DHT22;20084;47.912;19.044;2023-12-04T12:46:11;2.10;99.90
33761;DHT22;20084;47.912;19.044;2023-12-04T12:48:36;2.00;99.90
33761;DHT22;20084;47.912;19.044;2023-12-04T12:51:02;2.10;99.90
33761;DHT22;20084;47.912;19.044;2023-12-04T12:53:28;2.00;99.90
33761;DHT22;20084;47.912;19.044;2023-12-04T12:55:57;1.90;99.90
33761;DHT22;20084;47.912;19.044;2023-12-04T12:58:24;2.00;99.90
33761;DHT22;20084;47.912;19.044;2023-12-04T13:00:50;2.00;99.90
33761;DHT22;20084;47.912;19.044;2023-12-04T13:03:16;2.10;99.90
33761;DHT22;20084;47.912;19.044;2023-12-04T13:05:42;2.00;99.90
33761;DHT22;20084;47.912;19.044;2023-12-04T13:08:08;2.10;99.90
33761;DHT22;20084;47.912;19.044;2023-12-04T13:10:33;2.20;99.90
33761;DHT22;20084;47.912;19.044;2023-12-04T13:12:59;2.10;99.90
33761;DHT22;20084;47.912;19.044;2023-12-04T13:15:26;2.10;99.90
33761;DHT22;20084;47.912;19.044;2023-12-04T13:17:51;2.20;99.90
33761;DHT22;20084;47.912;19.044;2023-12-04T13:20:17;2.20;99.90
33761;DHT22;20084;47.912;19.044;2023-12-04T13:22:43;2.20;99.90
33761;DHT22;20084;47.912;19.044;2023-12-04T13:25:09;2.20;99.90
33761;DHT22;20084;47.912;19.044;2023-12-04T13:27:39;2.10;99.90
33761;DHT22;20084;47.912;19.044;2023-12-04T13:30:08;2.00;99.90
33761;DHT22;20084;47.912;19.044;2023-12-04T13:32:38;2.10;99.90
33761;DHT22;20084;47.912;19.044;2023-12-04T13:35:04;2.10;99.90
33761;DHT22;20084;47.912;19.044;2023-12-04T13:37:31;2.10;99.90
33761;DHT22;20084;47.912;19.044;2023-12-04T13:39:57;2.10;99.90
33761;DHT22;20084;47.912;19.044;2023-12-04T13:42:34;2.20;99.90
33761;DHT22;20084;47.912;19.044;2023-12-04T13:45:19;2.20;99.90
33761;DHT22;20084;47.912;19.044;2023-12-04T13:47:47;2.00;99.90
33761;DHT22;20084;47.912;19.044;2023-12-04T13:50:13;2.00;99.90
33761;DHT22;20084;47.912;19.044;2023-12-04T13:52:38;2.00;99.90
33761;DHT22;20084;47.912;19.044;2023-12-04T13:55:05;2.00;99.90
33761;DHT22;20084;47.912;19.044;2023-12-04T13:57:42;2.00;99.90
33761;DHT22;20084;47.912;19.044;2023-12-04T14:00:41;2.10;99.90
33761;DHT22;20084;47.912;19.044;2023-12-04T14:03:06;2.10;99.90
33761;DHT22;20084;47.912;19.044;2023-12-04T14:05:33;2.10;99.90
33761;DHT22;20084;47.912;19.044;2023-12-04T14:08:00;2.10;99.90
33761;DHT22;20084;47.912;19.044;2023-12-04T14:10:26;2.10;99.90
33761;DHT22;20084;47.912;19.044;2023-12-04T14:12:53;2.10;99.90
33761;DHT22;20084;47.912;19.044;2023-12-04T14:15:19;2.10;99.90
33761;DHT22;20084;47.912;19.044;2023-12-04T14:17:45;2.10;99.90
33761;DHT22;20084;47.912;19.044;2023-12-04T14:20:12;2.10;99.90
33761;DHT22;20084;47.912;19.044;2023-12-04T14:22:44;2.00;99.90
33761;DHT22;20084;47.912;19.044;2023-12-04T14:25:13;1.90;99.90
33761;DHT22;20084;47.912;19.044;2023-12-04T14:27:39;1.90;99.90
33761;DHT22;20084;47.912;19.044;2023-12-04T14:30:09;1.90;99.90
33761;DHT22;20084;47.912;19.044;2023-12-04T14:32:35;1.90;99.90
33761;DHT22;20084;47.912;19.044;2023-12-04T14:35:04;1.90;99.90
33761;DHT22;20084;47.912;19.044;2023-12-04T14:37:30;1.80;99.90
33761;DHT22;20084;47.912;19.044;2023-12-04T14:39:55;1.80;99.90
33761;DHT22;20084;47.912;19.044;2023-12-04T14:42:21;1.80;99.90
33761;DHT22;20084;47.912;19.044;2023-12-04T14:44:47;1.80;99.90
33761;DHT22;20084;47.912;19.044;2023-12-04T14:47:12;1.80;99.90
33761;DHT22;20084;47.912;19.044;2023-12-04T14:49:38;1.80;99.90
33761;DHT22;20084;47.912;19.044;2023-12-04T14:52:04;1.70;99.90
33761;DHT22;20084;47.912;19.044;2023-12-04T14:54:31;1.70;99.90
33761;DHT22;20084;47.912;19.044;2023-12-04T14:57:18;1.60;99.90
33761;DHT22;20084;47.912;19.044;2023-12-04T15:00:15;1.60;99.90
33761;DHT22;20084;47.912;19.044;2023-12-04T15:03:12;1.60;99.90
33761;DHT22;20084;47.912;19.044;2023-12-04T15:06:07;1.60;99.90
33761;DHT22;20084;47.912;19.044;2023-12-04T15:08:38;1.50;99.90
33761;DHT22;20084;47.912;19.044;2023-12-04T15:11:23;1.50;99.90
33761;DHT22;20084;47.912;19.044;2023-12-04T15:14:07;1.40;99.90
33761;DHT22;20084;47.912;19.044;2023-12-04T15:16:32;1.30;99.90
33761;DHT22;20084;47.912;19.044;2023-12-04T15:19:07;1.20;99.90
33761;DHT22;20084;47.912;19.044;2023-12-04T15:21:38;1.10;99.90
33761;DHT22;20084;47.912;19.044;2023-12-04T15:24:05;1.00;99.90
33761;DHT22;20084;47.912;19.044;2023-12-04T15:26:32;0.90;99.90
33761;DHT22;20084;47.912;19.044;2023-12-04T15:28:58;0.80;99.90
33761;DHT22;20084;47.912;19.044;2023-12-04T15:39:47;0.60;99.90
33761;DHT22;20084;47.912;19.044;2023-12-04T15:42:12;0.50;99.90
33761;DHT22;20084;47.912;19.044;2023-12-04T15:44:38;0.50;99.90
33761;DHT22;20084;47.912;19.044;2023-12-04T15:47:04;0.60;99.90
33761;DHT22;20084;47.912;19.044;2023-12-04T15:49:29;0.60;99.90
33761;DHT22;20084;47.912;19.044;2023-12-04T15:51:55;0.70;99.90
33761;DHT22;20084;47.912;19.044;2023-12-04T15:54:20;0.80;99.90
33761;DHT22;20084;47.912;19.044;2023-12-04T15:56:46;0.90;99.90
33761;DHT22;20084;47.912;19.044;2023-12-04T15:59:12;1.00;99.90
33761;DHT22;20084;47.912;19.044;2023-12-04T16:01:38;1.10;99.90
33761;DHT22;20084;47.912;19.044;2023-12-04T16:04:03;1.20;99.90
33761;DHT22;20084;47.912;19.044;2023-12-04T16:06:29;1.10;99.90
33761;DHT22;20084;47.912;19.044;2023-12-04T16:09:13;1.20;99.90
33761;DHT22;20084;47.912;19.044;2023-12-04T16:11:39;1.20;99.90
33761;DHT22;20084;47.912;19.044;2023-12-04T16:14:05;1.10;99.90
33761;DHT22;20084;47.912;19.044;2023-12-04T16:16:32;1.10;99.90
33761;DHT22;20084;47.912;19.044;2023-12-04T16:18:57;1.10;99.90
33761;DHT22;20084;47.912;19.044;2023-12-04T16:21:23;1.10;99.90
33761;DHT22;20084;47.912;19.044;2023-12-04T16:23:49;1.10;99.90
33761;DHT22;20084;47.912;19.044;2023-12-04T16:26:17;0.90;99.90
33761;DHT22;20084;47.912;19.044;2023-12-04T16:28:44;0.90;99.90
33761;DHT22;20084;47.912;19.044;2023-12-04T16:31:09;0.90;99.90
33761;DHT22;20084;47.912;19.044;2023-12-04T16:33:35;1.10;99.90
33761;DHT22;20084;47.912;19.044;2023-12-04T16:36:00;1.20;99.90
33761;DHT22;20084;47.912;19.044;2023-12-04T16:38:26;1.00;99.90
33761;DHT22;20084;47.912;19.044;2023-12-04T16:40:52;1.00;99.90
33761;DHT22;20084;47.912;19.044;2023-12-04T16:43:18;0.90;99.90
33761;DHT22;20084;47.912;19.044;2023-12-04T16:45:43;0.90;99.90
33761;DHT22;20084;47.912;19.044;2023-12-04T16:48:10;0.80;99.90
33761;DHT22;20084;47.912;19.044;2023-12-04T16:50:36;0.80;99.90
33761;DHT22;20084;47.912;19.044;2023-12-04T16:53:02;0.80;99.90
33761;DHT22;20084;47.912;19.044;2023-12-04T16:55:28;0.70;99.90
33761;DHT22;20084;47.912;19.044;2023-12-04T16:57:53;0.70;99.90
33761;DHT22;20084;47.912;19.044;2023-12-04T17:00:25;0.70;99.90
33761;DHT22;20084;47.912;19.044;2023-12-04T17:02:50;0.70;99.90
33761;DHT22;20084;47.912;19.044;2023-12-04T17:05:16;0.80;99.90
33761;DHT22;20084;47.912;19.044;2023-12-04T17:07:41;0.90;99.90